Andesborg — PCLC — position and weather

sailwx.info

Track history (hours):
 
Tides and Currents Weather Stations Pressure Air Temp Water Temp Dewpoint Dewpoint Depression Visibility Wind Speed Wind Dir Waves Ship Positions

Andesborg

Last reported at 2014-Sep-18 09:04 UTC. Time now 2014-Sep-19 22:00 UTC.
Position N 43°20' W 003°02'.

Length 142 m; draft 7.2 m.

Type: Ship. MMSI: 246797000.

Date/timePositionNaut miles runAvg speedWind from/ knotsBaromVisibWave heightAir tempDewpointWater temp
2014-Sep-18 09:04N 43°20' W 003°02'  
2014-Sep-15 20:06N 43°20' W 003°02'0 0.0
2014-Sep-15 19:27N 43°20' W 003°02'0 0.0
2014-Sep-15 18:33N 43°20' W 003°02'0 0.0
2014-Sep-15 17:33N 43°20' W 003°02'0 0.0
2014-Sep-15 16:33N 43°20' W 003°02'0 0.0
2014-Sep-15 15:33N 43°20' W 003°02'1 0.0
2014-Sep-14 08:19N 43°21' W 003°02'4 4.9
2014-Sep-14 07:33N 43°23' W 003°07'0 0.2
2014-Sep-14 06:16N 43°23' W 003°07'0 0.1
2014-Sep-14 05:32N 43°23' W 003°07'0 0.0
2014-Sep-14 04:31N 43°23' W 003°07'0 0.0
2014-Sep-14 02:13N 43°23' W 003°07'0 0.0
2014-Sep-13 18:31N 43°23' W 003°07'0 0.0
2014-Sep-13 17:10N 43°23' W 003°07'0 0.0
2014-Sep-13 15:16N 43°23' W 003°07'0 0.0
2014-Sep-13 05:23N 43°23' W 003°07'0 0.0
2014-Sep-12 23:17N 43°23' W 003°07'0 0.0
2014-Sep-12 19:11N 43°23' W 003°07'0 0.0
2014-Sep-12 18:32N 43°23' W 003°07'0 0.1
2014-Sep-12 17:32N 43°23' W 003°07'0 0.0
2014-Sep-12 16:10N 43°23' W 003°07'0 0.1
2014-Sep-12 15:31N 43°23' W 003°07'0 0.0
2014-Sep-12 14:32N 43°23' W 003°07'142 7.8
2014-Sep-11 20:24N 45°34' W 004°19'911.0
2014-Sep-11 19:32N 45°43' W 004°24'1111.0
2014-Sep-11 18:33N 45°53' W 004°30'43 9.9
2014-Sep-11 14:11N 46°30' W 005°03'810.6
2014-Sep-11 13:24N 46°37' W 005°09'9010.2
2014-Sep-11 04:31N 48°01' W 005°59'1010.3
2014-Sep-11 03:33N 48°10' W 006°06'10 9.8
2014-Sep-11 02:32N 48°20' W 006°09'26011.3
2014-Sep-10 03:33N 50°25' W 000°20'1512.7
2014-Sep-10 02:24N 50°29' E 000°02'1112.2
2014-Sep-10 01:32N 50°32' E 000°18'1111.4
2014-Sep-10 00:33N 50°35' E 000°35'1010.2
2014-Sep-09 23:33N 50°40' E 000°49'10 9.6
2014-Sep-09 22:32N 50°46' E 001°01'2110.7
2014-Sep-09 20:34N 51°00' E 001°26'1514.5
2014-Sep-09 19:33N 51°11' E 001°42'1313.5
2014-Sep-09 18:33N 51°21' E 001°55'9 9.0
2014-Sep-09 17:33N 51°22' E 002°10'1110.8
2014-Sep-09 16:32N 51°23' E 002°27'1111.1
2014-Sep-09 15:33N 51°22' E 002°45'1412.6
2014-Sep-09 14:29N 51°24' E 003°06'1213.2
2014-Sep-09 13:33N 51°25' E 003°26'1110.6
2014-Sep-09 12:33N 51°23' E 003°43'9 9.3
2014-Sep-09 11:34N 51°24' E 003°57'8 8.0
2014-Sep-09 10:33N 51°23' E 004°10'5 5.2
2014-Sep-09 09:34N 51°21' E 004°17'0 0.0
2014-Sep-09 08:33N 51°21' E 004°17'5 4.7
2014-Sep-09 07:33N 51°17' E 004°21'1 0.6
2014-Sep-09 06:25N 51°17' E 004°22'0 0.0
2014-Sep-09 05:31N 51°17' E 004°22'0 0.0
2014-Sep-09 04:28N 51°17' E 004°22'0 0.0
2014-Sep-09 03:28N 51°17' E 004°22'0 0.0
2014-Sep-09 02:25N 51°17' E 004°22'0 0.0
2014-Sep-09 01:31N 51°17' E 004°22'0 0.0
2014-Sep-09 00:31N 51°17' E 004°22'0 0.0
2014-Sep-08 23:28N 51°17' E 004°22'0 0.0
2014-Sep-08 22:31N 51°17' E 004°22'0 0.0
2014-Sep-08 21:31N 51°17' E 004°22'0 0.0
2014-Sep-08 20:28N 51°17' E 004°22'0 0.0
2014-Sep-08 19:28N 51°17' E 004°22'0 0.0
2014-Sep-08 18:30N 51°17' E 004°22'0 0.0
2014-Sep-08 17:33N 51°17' E 004°22'0 0.0
2014-Sep-08 16:33N 51°17' E 004°22'0 0.0
2014-Sep-08 15:33N 51°17' E 004°22'0 0.0
2014-Sep-08 14:33N 51°17' E 004°22'0 0.0
2014-Sep-08 13:30N 51°17' E 004°22'0 0.0
2014-Sep-08 12:33N 51°17' E 004°22'0 0.0
2014-Sep-08 11:26N 51°17' E 004°22'0 0.0
2014-Sep-08 10:32N 51°17' E 004°22'0 0.0
2014-Sep-08 09:31N 51°17' E 004°22'  
Track history (hours):
 
Tides and Currents Weather Stations Pressure Air Temp Water Temp Dewpoint Dewpoint Depression Visibility Wind Speed Wind Dir Waves Ship Positions

Andesborg

Last reported at 2014-Sep-18 09:04 UTC. Time now 2014-Sep-19 22:00 UTC.
Position N 43°20' W 003°02'.

Length 142 m; draft 7.2 m.

Type: Ship. MMSI: 246797000.

Date/timePositionNaut miles runAvg speedWind from/ knotsBaromVisibWave heightAir tempDewpointWater temp
2014-Sep-18 09:04N 43°20' W 003°02'  
2014-Sep-15 20:06N 43°20' W 003°02'0 0.0
2014-Sep-15 19:27N 43°20' W 003°02'0 0.0
2014-Sep-15 18:33N 43°20' W 003°02'0 0.0
2014-Sep-15 17:33N 43°20' W 003°02'0 0.0
2014-Sep-15 16:33N 43°20' W 003°02'0 0.0
2014-Sep-15 15:33N 43°20' W 003°02'1 0.0
2014-Sep-14 08:19N 43°21' W 003°02'4 4.9
2014-Sep-14 07:33N 43°23' W 003°07'0 0.2
2014-Sep-14 06:16N 43°23' W 003°07'0 0.1
2014-Sep-14 05:32N 43°23' W 003°07'0 0.0
2014-Sep-14 04:31N 43°23' W 003°07'0 0.0
2014-Sep-14 02:13N 43°23' W 003°07'0 0.0
2014-Sep-13 18:31N 43°23' W 003°07'0 0.0
2014-Sep-13 17:10N 43°23' W 003°07'0 0.0
2014-Sep-13 15:16N 43°23' W 003°07'0 0.0
2014-Sep-13 05:23N 43°23' W 003°07'0 0.0
2014-Sep-12 23:17N 43°23' W 003°07'0 0.0
2014-Sep-12 19:11N 43°23' W 003°07'0 0.0
2014-Sep-12 18:32N 43°23' W 003°07'0 0.1
2014-Sep-12 17:32N 43°23' W 003°07'0 0.0
2014-Sep-12 16:10N 43°23' W 003°07'0 0.1
2014-Sep-12 15:31N 43°23' W 003°07'0 0.0
2014-Sep-12 14:32N 43°23' W 003°07'142 7.8
2014-Sep-11 20:24N 45°34' W 004°19'911.0
2014-Sep-11 19:32N 45°43' W 004°24'1111.0
2014-Sep-11 18:33N 45°53' W 004°30'43 9.9
2014-Sep-11 14:11N 46°30' W 005°03'810.6
2014-Sep-11 13:24N 46°37' W 005°09'9010.2
2014-Sep-11 04:31N 48°01' W 005°59'1010.3
2014-Sep-11 03:33N 48°10' W 006°06'10 9.8
2014-Sep-11 02:32N 48°20' W 006°09'26011.3
2014-Sep-10 03:33N 50°25' W 000°20'1512.7
2014-Sep-10 02:24N 50°29' E 000°02'1112.2
2014-Sep-10 01:32N 50°32' E 000°18'1111.4
2014-Sep-10 00:33N 50°35' E 000°35'1010.2
2014-Sep-09 23:33N 50°40' E 000°49'10 9.6
2014-Sep-09 22:32N 50°46' E 001°01'2110.7
2014-Sep-09 20:34N 51°00' E 001°26'1514.5
2014-Sep-09 19:33N 51°11' E 001°42'1313.5
2014-Sep-09 18:33N 51°21' E 001°55'9 9.0
2014-Sep-09 17:33N 51°22' E 002°10'1110.8
2014-Sep-09 16:32N 51°23' E 002°27'1111.1
2014-Sep-09 15:33N 51°22' E 002°45'1412.6
2014-Sep-09 14:29N 51°24' E 003°06'1213.2
2014-Sep-09 13:33N 51°25' E 003°26'1110.6
2014-Sep-09 12:33N 51°23' E 003°43'9 9.3
2014-Sep-09 11:34N 51°24' E 003°57'8 8.0
2014-Sep-09 10:33N 51°23' E 004°10'5 5.2
2014-Sep-09 09:34N 51°21' E 004°17'0 0.0
2014-Sep-09 08:33N 51°21' E 004°17'5 4.7
2014-Sep-09 07:33N 51°17' E 004°21'1 0.6
2014-Sep-09 06:25N 51°17' E 004°22'0 0.0
2014-Sep-09 05:31N 51°17' E 004°22'0 0.0
2014-Sep-09 04:28N 51°17' E 004°22'0 0.0
2014-Sep-09 03:28N 51°17' E 004°22'0 0.0
2014-Sep-09 02:25N 51°17' E 004°22'0 0.0
2014-Sep-09 01:31N 51°17' E 004°22'0 0.0
2014-Sep-09 00:31N 51°17' E 004°22'0 0.0
2014-Sep-08 23:28N 51°17' E 004°22'0 0.0
2014-Sep-08 22:31N 51°17' E 004°22'0 0.0
2014-Sep-08 21:31N 51°17' E 004°22'0 0.0
2014-Sep-08 20:28N 51°17' E 004°22'0 0.0
2014-Sep-08 19:28N 51°17' E 004°22'0 0.0
2014-Sep-08 18:30N 51°17' E 004°22'0 0.0
2014-Sep-08 17:33N 51°17' E 004°22'0 0.0
2014-Sep-08 16:33N 51°17' E 004°22'0 0.0
2014-Sep-08 15:33N 51°17' E 004°22'0 0.0
2014-Sep-08 14:33N 51°17' E 004°22'0 0.0
2014-Sep-08 13:30N 51°17' E 004°22'0 0.0
2014-Sep-08 12:33N 51°17' E 004°22'0 0.0
2014-Sep-08 11:26N 51°17' E 004°22'0 0.0
2014-Sep-08 10:32N 51°17' E 004°22'0 0.0
2014-Sep-08 09:31N 51°17' E 004°22'  

Dump ship's entire track history